createdAt,value
2018-08-22T00:01:42.502Z,8.80
2018-08-22T00:04:09.505Z,9.55
2018-08-22T00:06:36.915Z,8.58
2018-08-22T00:09:06.356Z,8.40
2018-08-22T00:11:33.272Z,8.95
2018-08-22T00:14:00.308Z,9.50
2018-08-22T00:16:27.364Z,9.55
2018-08-22T00:18:54.383Z,9.33
2018-08-22T00:21:21.403Z,10.48
2018-08-22T00:23:48.428Z,9.00
2018-08-22T00:26:15.533Z,8.68
2018-08-22T00:28:42.638Z,10.15
2018-08-22T00:31:09.641Z,10.58
2018-08-22T00:33:36.716Z,8.65
2018-08-22T00:36:03.745Z,7.83
2018-08-22T00:38:30.783Z,8.88
2018-08-22T00:40:57.804Z,7.95
2018-08-22T00:43:24.828Z,9.43
2018-08-22T00:45:51.902Z,8.25
2018-08-22T00:48:18.915Z,9.13
2018-08-22T00:50:45.949Z,11.85
2018-08-22T00:53:12.996Z,8.15
2018-08-22T00:55:40.091Z,10.15
2018-08-22T00:58:07.112Z,7.62
2018-08-22T01:00:34.144Z,8.55
2018-08-22T01:03:01.156Z,8.53
2018-08-22T01:05:28.521Z,9.00
2018-08-22T01:07:55.672Z,7.97
2018-08-22T01:10:23.061Z,9.78
2018-08-22T01:12:50.089Z,9.03
2018-08-22T01:15:17.194Z,10.55
2018-08-22T01:17:44.264Z,7.85
2018-08-22T01:20:12.005Z,11.88
2018-08-22T01:22:39.234Z,9.08
2018-08-22T01:25:06.315Z,8.93
2018-08-22T01:27:33.380Z,8.50
2018-08-22T01:30:00.418Z,9.20
2018-08-22T01:32:27.448Z,10.15
2018-08-22T01:34:54.500Z,11.50
2018-08-22T01:37:21.551Z,11.70
2018-08-22T01:39:49.044Z,9.48
2018-08-22T01:42:16.388Z,9.53
2018-08-22T01:44:43.584Z,8.93
2018-08-22T01:47:10.620Z,8.30
2018-08-22T01:49:37.743Z,9.58
2018-08-22T01:52:04.808Z,9.05
2018-08-22T01:54:31.875Z,9.13
2018-08-22T01:56:58.948Z,9.55
2018-08-22T01:59:26.141Z,9.15
2018-08-22T02:01:53.173Z,11.15
2018-08-22T02:04:20.324Z,13.30
2018-08-22T02:06:47.531Z,11.12
2018-08-22T02:09:14.576Z,10.58
2018-08-22T02:11:41.615Z,11.48
2018-08-22T02:14:09.723Z,9.70
2018-08-22T02:16:37.187Z,10.32
2018-08-22T02:19:04.540Z,10.55
2018-08-22T02:21:31.575Z,9.35
2018-08-22T02:23:58.615Z,9.68
2018-08-22T02:26:25.646Z,9.95
2018-08-22T02:28:52.764Z,9.90
2018-08-22T02:31:19.813Z,9.08
2018-08-22T02:33:46.842Z,9.60
2018-08-22T02:38:58.436Z,17.63
2018-08-22T02:41:26.167Z,12.70
2018-08-22T02:43:53.206Z,10.38
2018-08-22T02:46:20.244Z,10.65
2018-08-22T02:48:52.732Z,8.78
2018-08-22T02:51:19.788Z,9.45
2018-08-22T02:53:46.836Z,8.78
2018-08-22T02:56:13.874Z,10.23
2018-08-22T02:58:40.936Z,11.40
2018-08-22T03:01:07.970Z,8.95
2018-08-22T03:03:35.343Z,10.98
2018-08-22T03:06:02.554Z,10.48
2018-08-22T03:08:29.872Z,9.03
2018-08-22T03:10:56.950Z,9.78
2018-08-22T03:13:24.015Z,9.50
2018-08-22T03:15:51.052Z,11.40
2018-08-22T03:18:18.080Z,11.20
2018-08-22T03:20:45.308Z,9.85
2018-08-22T03:23:12.335Z,10.18
2018-08-22T03:25:39.627Z,8.80
2018-08-22T03:28:06.655Z,9.18
2018-08-22T03:30:33.786Z,9.53
2018-08-22T03:33:00.804Z,9.03
2018-08-22T03:35:27.850Z,10.43
2018-08-22T03:37:54.928Z,8.68
2018-08-22T03:40:21.959Z,9.95
2018-08-22T03:42:49.112Z,10.82
2018-08-22T03:45:16.239Z,9.83
2018-08-22T03:47:43.266Z,10.45
2018-08-22T03:50:10.336Z,12.10
2018-08-22T03:52:37.484Z,11.22
2018-08-22T03:55:04.541Z,9.33
2018-08-22T03:57:31.600Z,11.10
2018-08-22T03:59:58.769Z,9.18
2018-08-22T04:02:25.823Z,8.40
2018-08-22T04:04:53.004Z,8.83
2018-08-22T04:07:20.667Z,9.88
2018-08-22T04:09:47.744Z,11.97
2018-08-22T04:14:52.643Z,10.30
2018-08-22T04:17:19.708Z,9.68
2018-08-22T04:19:46.735Z,10.18
2018-08-22T04:22:13.766Z,9.58
2018-08-22T04:24:40.860Z,11.08
2018-08-22T04:27:08.281Z,11.35
2018-08-22T04:29:35.398Z,11.55
2018-08-22T04:32:02.530Z,10.95
2018-08-22T04:34:29.537Z,9.53
2018-08-22T04:36:56.584Z,9.98
2018-08-22T04:39:23.608Z,9.75
2018-08-22T04:41:50.649Z,11.43
2018-08-22T04:44:17.675Z,11.85
2018-08-22T04:46:44.733Z,11.83
2018-08-22T04:49:11.760Z,12.55
2018-08-22T04:51:38.800Z,12.25
2018-08-22T04:54:05.892Z,12.78
2018-08-22T04:56:32.948Z,10.72
2018-08-22T04:58:59.980Z,10.03
2018-08-22T05:01:27.040Z,9.80
2018-08-22T05:03:54.060Z,10.43
2018-08-22T05:06:21.097Z,9.58
2018-08-22T05:08:48.131Z,12.75
2018-08-22T05:11:15.168Z,10.90
2018-08-22T05:13:42.195Z,9.95
2018-08-22T05:16:09.228Z,10.78
2018-08-22T05:18:36.276Z,9.93
2018-08-22T05:21:03.360Z,9.25
2018-08-22T05:23:30.428Z,10.82
2018-08-22T05:25:57.460Z,10.15
2018-08-22T05:28:24.500Z,11.05
2018-08-22T05:30:51.568Z,13.40
2018-08-22T05:33:18.640Z,12.03
2018-08-22T05:35:45.728Z,13.95
2018-08-22T05:38:12.768Z,11.90
2018-08-22T05:40:39.835Z,14.33
2018-08-22T05:43:06.968Z,11.53
2018-08-22T05:45:34.180Z,9.85
2018-08-22T05:48:01.308Z,11.63
2018-08-22T05:50:28.389Z,12.65
2018-08-22T05:52:55.452Z,11.50
2018-08-22T05:55:22.484Z,15.58
2018-08-22T05:57:49.535Z,12.82
2018-08-22T06:00:16.564Z,12.30
2018-08-22T06:02:43.635Z,12.85
2018-08-22T06:05:10.670Z,11.90
2018-08-22T06:07:37.754Z,13.43
2018-08-22T06:10:04.780Z,11.25
2018-08-22T06:12:31.816Z,16.07
2018-08-22T06:14:59.013Z,14.93
2018-08-22T06:17:26.081Z,18.85
2018-08-22T06:19:53.123Z,11.60
2018-08-22T06:22:20.155Z,16.35
2018-08-22T06:24:47.332Z,11.53
2018-08-22T06:27:14.364Z,12.68
2018-08-22T06:29:41.396Z,12.78
2018-08-22T06:32:08.440Z,13.68
2018-08-22T06:34:35.472Z,13.88
2018-08-22T06:37:02.544Z,14.33
2018-08-22T06:39:29.831Z,14.00
2018-08-22T06:41:56.888Z,12.85
2018-08-22T06:44:24.014Z,10.78
2018-08-22T06:46:50.980Z,16.57
2018-08-22T06:49:18.264Z,16.23
2018-08-22T06:51:45.536Z,13.70
2018-08-22T06:54:12.576Z,17.90
2018-08-22T06:56:39.715Z,13.20
2018-08-22T06:59:06.748Z,14.85
2018-08-22T07:01:33.800Z,13.53
2018-08-22T07:04:00.897Z,12.45
2018-08-22T07:06:27.996Z,9.15
2018-08-22T07:08:55.123Z,16.05
2018-08-22T07:11:22.208Z,11.18
2018-08-22T07:13:49.321Z,10.63
2018-08-22T07:16:16.467Z,11.18
2018-08-22T07:18:43.493Z,9.40
2018-08-22T07:21:10.524Z,13.48
2018-08-22T07:23:37.571Z,12.05
2018-08-22T07:26:04.656Z,13.45
2018-08-22T07:28:31.688Z,14.50
2018-08-22T07:30:58.741Z,8.95
2018-08-22T07:33:25.804Z,12.70
2018-08-22T07:35:52.923Z,13.25
2018-08-22T07:38:20.129Z,12.18
2018-08-22T07:40:47.155Z,12.35
2018-08-22T07:43:14.188Z,12.55
2018-08-22T07:45:41.240Z,12.23
2018-08-22T07:48:08.388Z,14.35
2018-08-22T07:50:35.416Z,15.05
2018-08-22T07:53:02.460Z,19.05
2018-08-22T07:55:29.705Z,19.62
2018-08-22T07:57:56.744Z,14.93
2018-08-22T08:00:23.779Z,16.00
2018-08-22T08:02:50.828Z,18.40
2018-08-22T08:05:18.027Z,21.02
2018-08-22T08:07:45.068Z,13.70
2018-08-22T08:10:13.128Z,14.20
2018-08-22T08:12:40.784Z,14.25
2018-08-22T08:15:08.041Z,12.95
2018-08-22T08:17:35.162Z,12.23
2018-08-22T08:20:02.245Z,14.33
2018-08-22T08:22:29.364Z,15.88
2018-08-22T08:24:56.405Z,15.08
2018-08-22T08:27:24.080Z,13.00
2018-08-22T08:29:51.287Z,11.20
2018-08-22T08:32:18.339Z,12.10
2018-08-22T08:34:45.401Z,11.43
2018-08-22T08:37:12.435Z,11.10
2018-08-22T08:39:39.516Z,10.68
2018-08-22T08:42:06.552Z,14.03
2018-08-22T08:44:33.588Z,11.00
2018-08-22T08:47:00.624Z,10.78
2018-08-22T08:49:27.857Z,12.37
2018-08-22T08:51:56.033Z,9.58
2018-08-22T08:54:23.184Z,10.23
2018-08-22T08:56:50.336Z,11.95
2018-08-22T08:59:17.423Z,9.13
2018-08-22T09:01:44.433Z,10.45
2018-08-22T09:04:11.460Z,10.90
2018-08-22T09:06:38.569Z,11.68
2018-08-22T09:09:07.079Z,8.70
2018-08-22T09:11:34.119Z,8.15
2018-08-22T09:14:01.144Z,9.78
2018-08-22T09:16:28.185Z,11.18
2018-08-22T09:18:55.530Z,9.38
2018-08-22T09:21:22.600Z,10.25
2018-08-22T09:23:49.589Z,10.50
2018-08-22T09:26:16.637Z,9.08
2018-08-22T09:28:43.675Z,10.25
2018-08-22T09:31:10.712Z,10.55
2018-08-22T09:33:37.753Z,8.48
2018-08-22T09:36:04.796Z,8.90
2018-08-22T09:38:31.853Z,8.40
2018-08-22T09:40:58.912Z,8.68
2018-08-22T09:43:25.972Z,8.18
2018-08-22T09:45:53.004Z,9.30
2018-08-22T09:48:20.044Z,10.15
2018-08-22T09:50:47.096Z,9.95
2018-08-22T09:53:14.120Z,8.38
2018-08-22T09:55:41.169Z,9.20
2018-08-22T09:58:08.255Z,12.80
2018-08-22T10:00:40.639Z,8.48
2018-08-22T10:03:07.816Z,9.88
2018-08-22T10:05:34.848Z,8.08
2018-08-22T10:08:01.886Z,8.83
2018-08-22T10:10:28.908Z,8.75
2018-08-22T10:12:55.948Z,8.98
2018-08-22T10:15:22.983Z,9.18
2018-08-22T10:17:50.040Z,9.58
2018-08-22T10:20:17.067Z,8.23
2018-08-22T10:22:44.108Z,9.23
2018-08-22T10:25:11.150Z,10.05
2018-08-22T10:27:38.197Z,8.78
2018-08-22T10:30:05.388Z,8.48
2018-08-22T10:32:32.475Z,9.05
2018-08-22T10:34:59.464Z,7.87
2018-08-22T10:37:26.524Z,8.23
2018-08-22T10:39:53.572Z,9.05
2018-08-22T10:42:20.601Z,8.60
2018-08-22T10:44:47.632Z,8.00
2018-08-22T10:47:14.652Z,8.45
2018-08-22T10:49:41.736Z,10.05
2018-08-22T10:52:08.776Z,8.60
2018-08-22T10:54:35.808Z,7.90
2018-08-22T10:57:02.868Z,7.83
2018-08-22T10:59:29.928Z,10.60
2018-08-22T11:01:57.012Z,9.03
2018-08-22T11:04:24.005Z,9.55
2018-08-22T11:06:51.027Z,8.63
2018-08-22T11:09:18.069Z,9.93
2018-08-22T11:11:45.096Z,9.43
2018-08-22T11:14:12.132Z,8.70
2018-08-22T11:16:39.183Z,9.28
2018-08-22T11:19:06.261Z,9.35
2018-08-22T11:21:39.170Z,8.73
2018-08-22T11:24:11.996Z,8.75
2018-08-22T11:26:44.828Z,11.25
2018-08-22T11:29:17.527Z,11.15
2018-08-22T11:31:50.361Z,9.30
2018-08-22T11:34:23.029Z,8.58
2018-08-22T11:36:59.816Z,8.78
2018-08-22T11:39:26.828Z,9.25
2018-08-22T11:41:53.872Z,8.90
2018-08-22T11:44:21.077Z,8.28
2018-08-22T11:46:48.123Z,10.03
2018-08-22T11:49:15.129Z,14.20
2018-08-22T11:51:42.155Z,9.50
2018-08-22T11:54:09.280Z,9.10
2018-08-22T11:56:36.440Z,9.58
2018-08-22T11:59:03.460Z,9.40
2018-08-22T12:01:30.491Z,8.45
2018-08-22T12:03:57.531Z,9.65
2018-08-22T12:06:24.580Z,9.10
2018-08-22T12:08:51.648Z,9.35
2018-08-22T12:11:18.672Z,9.60
2018-08-22T12:13:45.697Z,9.50
2018-08-22T12:16:12.843Z,10.68
2018-08-22T12:18:39.793Z,10.55
2018-08-22T12:21:06.811Z,9.43
2018-08-22T12:23:33.840Z,9.05
2018-08-22T12:26:00.922Z,22.70
2018-08-22T12:28:27.948Z,26.25
2018-08-22T12:30:54.988Z,12.78
2018-08-22T12:33:22.061Z,16.90
2018-08-22T12:35:49.156Z,15.95
2018-08-22T12:38:16.510Z,25.27
2018-08-22T12:40:43.858Z,17.12
2018-08-22T12:43:11.450Z,20.52
2018-08-22T12:45:38.965Z,16.73
2018-08-22T12:48:06.211Z,12.90
2018-08-22T12:50:33.345Z,20.50
2018-08-22T12:53:00.377Z,18.95
2018-08-22T12:55:27.583Z,14.90
2018-08-22T12:57:54.648Z,17.75
2018-08-22T13:00:21.741Z,14.90
2018-08-22T13:02:48.736Z,13.65
2018-08-22T13:05:15.854Z,13.40
2018-08-22T13:07:42.888Z,12.98
2018-08-22T13:10:09.939Z,21.85
2018-08-22T13:12:36.979Z,11.97
2018-08-22T13:15:04.366Z,10.48
2018-08-22T13:17:31.512Z,15.05
2018-08-22T13:19:58.581Z,9.70
2018-08-22T13:22:25.621Z,13.75
2018-08-22T13:24:52.700Z,25.80
2018-08-22T13:27:19.742Z,26.07
2018-08-22T13:29:46.795Z,44.85
2018-08-22T13:32:13.840Z,41.63
2018-08-22T13:34:40.893Z,29.15
2018-08-22T13:37:07.956Z,30.85
2018-08-22T13:39:35.028Z,23.95
2018-08-22T13:42:02.102Z,29.55
2018-08-22T13:44:29.144Z,25.15
2018-08-22T13:46:56.191Z,23.27
2018-08-22T13:49:23.224Z,19.23
2018-08-22T13:51:50.364Z,19.07
2018-08-22T13:54:17.557Z,18.35
2018-08-22T13:56:44.670Z,17.67
2018-08-22T13:59:11.798Z,20.43
2018-08-22T14:01:38.901Z,21.48
2018-08-22T14:04:05.944Z,16.57
2018-08-22T14:06:33.046Z,13.30
2018-08-22T14:09:00.092Z,13.88
2018-08-22T14:11:27.184Z,16.23
2018-08-22T14:13:54.217Z,13.48
2018-08-22T14:16:21.338Z,17.50
2018-08-22T14:18:48.557Z,16.70
2018-08-22T14:21:15.640Z,16.57
2018-08-22T14:23:42.763Z,15.83
2018-08-22T14:26:09.901Z,21.73
2018-08-22T14:28:37.038Z,17.73
2018-08-22T14:31:04.125Z,17.95
2018-08-22T14:33:31.286Z,22.27
2018-08-22T14:35:58.325Z,14.78
2018-08-22T14:38:25.383Z,17.17
2018-08-22T14:40:52.436Z,11.83
2018-08-22T14:43:19.473Z,16.02
2018-08-22T14:45:46.543Z,11.63
2018-08-22T14:48:13.629Z,16.00
2018-08-22T14:50:40.672Z,10.55
2018-08-22T14:53:07.721Z,12.63
2018-08-22T14:55:34.801Z,10.65
2018-08-22T14:58:01.795Z,11.43
2018-08-22T15:00:28.872Z,16.37
2018-08-22T15:02:56.115Z,17.23
2018-08-22T15:05:22.956Z,10.85
2018-08-22T15:07:50.028Z,17.80
2018-08-22T15:10:18.008Z,11.15
2018-08-22T15:12:45.564Z,10.18
2018-08-22T15:15:12.618Z,14.90
2018-08-22T15:17:39.782Z,10.80
2018-08-22T15:20:06.983Z,15.58
2018-08-22T15:22:34.028Z,15.98
2018-08-22T15:25:01.143Z,14.87
2018-08-22T15:27:28.279Z,11.25
2018-08-22T15:29:55.413Z,16.50
2018-08-22T15:32:22.457Z,18.90
2018-08-22T15:34:51.817Z,20.80
2018-08-22T15:37:19.299Z,20.35
2018-08-22T15:39:46.327Z,21.85
2018-08-22T15:42:13.373Z,15.53
2018-08-22T15:44:40.432Z,20.88
2018-08-22T15:47:07.568Z,23.55
2018-08-22T15:49:34.570Z,15.80
2018-08-22T15:52:01.596Z,14.43
2018-08-22T15:54:28.739Z,18.07
2018-08-22T15:56:55.783Z,19.77
2018-08-22T15:59:22.830Z,18.50
2018-08-22T16:01:49.896Z,16.40
2018-08-22T16:04:16.957Z,15.58
2018-08-22T16:06:43.997Z,20.17
2018-08-22T16:09:15.667Z,15.23
2018-08-22T16:11:43.032Z,23.38
2018-08-22T16:14:10.073Z,20.30
2018-08-22T16:16:37.238Z,21.50
2018-08-22T16:19:04.354Z,20.02
2018-08-22T16:21:31.650Z,19.40
2018-08-22T16:23:58.723Z,18.65
2018-08-22T16:26:25.735Z,17.05
2018-08-22T16:28:54.291Z,15.40
2018-08-22T16:31:22.476Z,15.05
2018-08-22T16:33:49.516Z,25.50
2018-08-22T16:36:22.140Z,15.55
2018-08-22T16:38:49.187Z,19.45
2018-08-22T16:41:16.576Z,17.27
2018-08-22T16:43:44.736Z,15.58
2018-08-22T16:46:13.328Z,17.37
2018-08-22T16:48:41.323Z,14.07
2018-08-22T16:51:08.376Z,18.55
2018-08-22T16:53:35.736Z,18.25
2018-08-22T16:56:02.774Z,16.90
2018-08-22T16:58:30.064Z,16.17
2018-08-22T17:00:57.100Z,18.90
2018-08-22T17:03:24.307Z,16.05
2018-08-22T17:05:54.248Z,13.80
2018-08-22T17:08:21.383Z,17.12
2018-08-22T17:10:56.952Z,22.35
2018-08-22T17:13:30.552Z,15.85
2018-08-22T17:15:58.771Z,25.05
2018-08-22T17:18:25.992Z,22.93
2018-08-22T17:20:53.072Z,21.37
2018-08-22T17:23:20.387Z,14.68
2018-08-22T17:25:47.355Z,18.20
2018-08-22T17:28:14.688Z,20.23
2018-08-22T17:30:42.643Z,15.55
2018-08-22T17:33:11.126Z,15.95
2018-08-22T17:35:42.364Z,25.77
2018-08-22T17:38:12.747Z,22.30
2018-08-22T17:40:40.832Z,24.00
2018-08-22T17:43:08.080Z,20.77
2018-08-22T17:45:36.676Z,18.30
2018-08-22T17:48:04.448Z,15.35
2018-08-22T17:50:31.552Z,15.25
2018-08-22T17:52:58.627Z,11.50
2018-08-22T17:55:25.940Z,18.42
2018-08-22T17:57:52.876Z,17.77
2018-08-22T18:00:19.924Z,17.20
2018-08-22T18:02:48.027Z,19.55
2018-08-22T18:05:15.084Z,15.18
2018-08-22T18:07:42.132Z,17.60
2018-08-22T18:10:09.189Z,17.90
2018-08-22T18:12:36.220Z,21.75
2018-08-22T18:15:03.848Z,15.72
2018-08-22T18:17:30.899Z,22.15
2018-08-22T18:19:58.098Z,21.07
2018-08-22T18:22:28.888Z,37.20
2018-08-22T18:24:56.693Z,34.08
2018-08-22T18:27:23.800Z,34.50
2018-08-22T18:29:50.836Z,36.90
2018-08-22T18:32:17.895Z,39.78
2018-08-22T18:34:55.162Z,31.45
2018-08-22T18:37:22.173Z,25.68
2018-08-22T18:39:53.737Z,24.98
2018-08-22T18:42:20.782Z,19.60
2018-08-22T18:44:47.835Z,22.77
2018-08-22T18:47:14.964Z,18.70
2018-08-22T18:49:42.176Z,17.92
2018-08-22T18:52:09.477Z,19.20
2018-08-22T18:54:36.572Z,19.85
2018-08-22T18:57:03.608Z,16.12
2018-08-22T18:59:30.670Z,17.05
2018-08-22T19:01:57.712Z,14.07
2018-08-22T19:04:25.104Z,12.20
2018-08-22T19:06:52.188Z,15.60
2018-08-22T19:09:19.237Z,14.30
2018-08-22T19:11:46.292Z,15.08
2018-08-22T19:14:13.949Z,13.38
2018-08-22T19:16:41.628Z,18.90
2018-08-22T19:19:08.670Z,11.68
2018-08-22T19:21:35.761Z,12.30
2018-08-22T19:24:03.799Z,13.80
2018-08-22T19:26:31.025Z,13.25
2018-08-22T19:28:59.593Z,12.30
2018-08-22T19:31:26.644Z,15.05
2018-08-22T19:33:53.815Z,12.30
2018-08-22T19:36:20.899Z,12.37
2018-08-22T19:38:47.948Z,12.63
2018-08-22T19:41:22.513Z,11.65
2018-08-22T19:43:49.565Z,12.93
2018-08-22T19:46:16.612Z,12.07
2018-08-22T19:48:43.644Z,12.07
2018-08-22T19:51:10.736Z,13.08
2018-08-22T19:53:42.471Z,11.57
2018-08-22T19:56:09.514Z,11.63
2018-08-22T19:58:36.670Z,14.40
2018-08-22T20:01:04.507Z,13.85
2018-08-22T20:03:33.776Z,15.93
2018-08-22T20:06:00.825Z,11.68
2018-08-22T20:08:33.389Z,11.97
2018-08-22T20:11:00.428Z,14.20
2018-08-22T20:13:33.324Z,12.37
2018-08-22T20:16:00.359Z,11.20
2018-08-22T20:18:27.600Z,12.65
2018-08-22T20:20:54.651Z,13.60
2018-08-22T20:23:21.722Z,13.93
2018-08-22T20:25:48.727Z,11.80
2018-08-22T20:28:15.853Z,14.85
2018-08-22T20:30:42.900Z,11.88
2018-08-22T20:33:10.282Z,11.93
2018-08-22T20:35:38.812Z,12.03
2018-08-22T20:38:10.016Z,13.65
2018-08-22T20:40:37.175Z,12.98
2018-08-22T20:43:04.165Z,13.48
2018-08-22T20:45:35.384Z,15.55
2018-08-22T20:48:08.016Z,15.18
2018-08-22T20:50:35.748Z,13.62
2018-08-22T20:53:04.063Z,14.75
2018-08-22T20:55:31.433Z,13.78
2018-08-22T20:57:59.291Z,12.05
2018-08-22T21:00:26.448Z,12.28
2018-08-22T21:02:54.886Z,14.83
2018-08-22T21:05:21.927Z,13.58
2018-08-22T21:07:48.956Z,14.30
2018-08-22T21:10:16.424Z,13.25
2018-08-22T21:12:43.472Z,12.50
2018-08-22T21:15:10.508Z,13.80
2018-08-22T21:17:37.552Z,14.00
2018-08-22T21:20:09.742Z,16.60
2018-08-22T21:22:36.880Z,14.65
2018-08-22T21:25:04.239Z,15.88
2018-08-22T21:27:31.314Z,15.88
2018-08-22T21:29:58.508Z,14.85
2018-08-22T21:32:25.567Z,16.32
2018-08-22T21:34:52.601Z,18.87
2018-08-22T21:37:28.678Z,16.00
2018-08-22T21:39:57.782Z,14.15
2018-08-22T21:42:30.933Z,16.48
2018-08-22T21:44:57.963Z,14.07
2018-08-22T21:47:25.844Z,16.90
2018-08-22T21:49:52.880Z,13.68
2018-08-22T21:52:19.952Z,17.40
2018-08-22T21:54:47.011Z,14.18
2018-08-22T21:57:14.170Z,16.15
2018-08-22T21:59:41.204Z,16.48
2018-08-22T22:02:09.448Z,15.60
2018-08-22T22:04:39.504Z,12.98
2018-08-22T22:07:07.456Z,17.77
2018-08-22T22:09:35.240Z,15.93
2018-08-22T22:12:02.922Z,14.90
2018-08-22T22:14:32.238Z,15.48
2018-08-22T22:17:00.198Z,17.20
2018-08-22T22:19:29.316Z,15.78
2018-08-22T22:21:56.420Z,15.43
2018-08-22T22:24:23.464Z,14.38
2018-08-22T22:26:50.519Z,17.87
2018-08-22T22:29:17.593Z,16.55
2018-08-22T22:31:44.652Z,17.70
2018-08-22T22:34:11.929Z,16.62
2018-08-22T22:36:38.981Z,16.62
2018-08-22T22:40:09.539Z,16.90
2018-08-22T22:42:36.584Z,14.38
2018-08-22T22:45:03.624Z,16.93
2018-08-22T22:47:32.822Z,15.28
2018-08-22T22:50:00.485Z,15.70
2018-08-22T22:52:28.276Z,13.58
2018-08-22T22:54:57.480Z,21.17
2018-08-22T22:57:24.733Z,13.53
2018-08-22T22:59:52.211Z,13.05
2018-08-22T23:02:20.524Z,15.88
2018-08-22T23:04:49.812Z,13.53
2018-08-22T23:07:20.151Z,12.25
2018-08-22T23:09:48.704Z,13.05
2018-08-22T23:12:15.907Z,13.40
2018-08-22T23:14:42.948Z,14.30
2018-08-22T23:17:10.010Z,14.43
2018-08-22T23:19:37.072Z,14.50
2018-08-22T23:22:04.108Z,17.02
2018-08-22T23:24:31.153Z,16.10
2018-08-22T23:26:58.188Z,19.85
2018-08-22T23:29:25.219Z,22.87
2018-08-22T23:31:52.288Z,17.90
2018-08-22T23:34:19.330Z,19.85
2018-08-22T23:36:46.376Z,16.80
2018-08-22T23:39:13.412Z,15.00
2018-08-22T23:41:40.508Z,16.55
2018-08-22T23:44:07.604Z,15.72
2018-08-22T23:46:34.852Z,14.23
2018-08-22T23:49:01.910Z,15.15
2018-08-22T23:51:28.939Z,15.28
2018-08-22T23:53:57.098Z,13.68
2018-08-22T23:56:29.131Z,17.15
2018-08-22T23:58:56.783Z,15.13
